Decoded Metar for KPHF (NEWPORT NEWS in VA, USA) (IATA:PHF) | Meteo·Mobile Aviation Weather
aviador You're here:

KPHF Decoded Metar

NEWPORT NEWS in VA, USA
Report Time2019-01-23 07:54:00
UTC Time2019-01-23 08:10:37
Flight Rules unknown UNKNOWN
WindCalm
VisibilityN/A
Phenomena:N/A
Clouds:Overcast 039 Hf
Expected CloudBase > 1,200 ft AGL from Temp-Dew spread
Ceiling3,900 ft
Temp-1°C (ISA -16)
Dew Point-4°C (80% RH)
AAT-3.5°C
QNH1035 hPa
Density Alt-2,595 ft
Elevation39 ft
Report Wrong Elevation
Raw Report
KPHF 230754Z AUTO 00000KT OVC039 M01/M04 A3055 RMK AO2 SLP344
T10061044=

Extra information for KPHF:More info

Metar Taf Metar & Taf Last 4 Metars F.Rules Stats Wind Profile Meteogram Temp Stats Airport Information Weather charts Add Link Nearby VenuesMetar ALERT Operation Metar Decoded Social comments

AIRNAV info for KPHF